sensor_id;sensor_type;location;lat;lon;timestamp;P1;durP1;ratioP1;P2;durP2;ratioP2
56991;SDS011;42885;49.754;18.636;2022-08-21T00:01:13;14.05;;;11.57;;
56991;SDS011;42885;49.754;18.636;2022-08-21T00:03:46;16.27;;;12.40;;
56991;SDS011;42885;49.754;18.636;2022-08-21T00:06:17;16.85;;;11.70;;
56991;SDS011;42885;49.754;18.636;2022-08-21T00:08:48;17.80;;;11.95;;
56991;SDS011;42885;49.754;18.636;2022-08-21T00:11:19;16.05;;;12.45;;
56991;SDS011;42885;49.754;18.636;2022-08-21T00:13:50;19.98;;;13.28;;
56991;SDS011;42885;49.754;18.636;2022-08-21T00:16:21;15.33;;;12.37;;
56991;SDS011;42885;49.754;18.636;2022-08-21T00:18:52;18.77;;;13.87;;
56991;SDS011;42885;49.754;18.636;2022-08-21T00:21:23;14.57;;;12.53;;
56991;SDS011;42885;49.754;18.636;2022-08-21T00:23:54;17.62;;;13.43;;
56991;SDS011;42885;49.754;18.636;2022-08-21T00:26:24;19.35;;;14.30;;
56991;SDS011;42885;49.754;18.636;2022-08-21T00:28:55;20.30;;;15.13;;
56991;SDS011;42885;49.754;18.636;2022-08-21T00:31:26;20.80;;;14.87;;
56991;SDS011;42885;49.754;18.636;2022-08-21T00:33:57;15.90;;;13.72;;
56991;SDS011;42885;49.754;18.636;2022-08-21T00:36:29;22.80;;;14.67;;
56991;SDS011;42885;49.754;18.636;2022-08-21T00:39:00;18.73;;;14.38;;
56991;SDS011;42885;49.754;18.636;2022-08-21T00:41:33;23.57;;;15.38;;
56991;SDS011;42885;49.754;18.636;2022-08-21T00:44:09;21.00;;;16.07;;
56991;SDS011;42885;49.754;18.636;2022-08-21T00:46:42;22.30;;;15.23;;
56991;SDS011;42885;49.754;18.636;2022-08-21T00:49:13;17.30;;;14.65;;
56991;SDS011;42885;49.754;18.636;2022-08-21T00:51:55;19.30;;;14.15;;
56991;SDS011;42885;49.754;18.636;2022-08-21T00:54:28;18.10;;;14.13;;
56991;SDS011;42885;49.754;18.636;2022-08-21T00:57:03;19.87;;;15.08;;
56991;SDS011;42885;49.754;18.636;2022-08-21T00:59:35;18.80;;;14.43;;
56991;SDS011;42885;49.754;18.636;2022-08-21T01:02:12;24.85;;;14.95;;
56991;SDS011;42885;49.754;18.636;2022-08-21T01:04:43;17.17;;;14.65;;
56991;SDS011;42885;49.754;18.636;2022-08-21T01:07:15;21.60;;;15.20;;
56991;SDS011;42885;49.754;18.636;2022-08-21T01:09:46;20.72;;;16.67;;
56991;SDS011;42885;49.754;18.636;2022-08-21T01:12:18;18.48;;;16.52;;
56991;SDS011;42885;49.754;18.636;2022-08-21T01:15:02;19.95;;;15.95;;
56991;SDS011;42885;49.754;18.636;2022-08-21T01:17:34;20.75;;;15.55;;
56991;SDS011;42885;49.754;18.636;2022-08-21T01:20:07;22.40;;;16.17;;
56991;SDS011;42885;49.754;18.636;2022-08-21T01:22:40;24.12;;;16.30;;
56991;SDS011;42885;49.754;18.636;2022-08-21T01:25:12;18.23;;;16.02;;
56991;SDS011;42885;49.754;18.636;2022-08-21T01:27:45;23.12;;;17.77;;
56991;SDS011;42885;49.754;18.636;2022-08-21T01:30:18;21.00;;;17.25;;
56991;SDS011;42885;49.754;18.636;2022-08-21T01:32:50;23.12;;;17.48;;
56991;SDS011;42885;49.754;18.636;2022-08-21T01:35:23;20.72;;;17.77;;
56991;SDS011;42885;49.754;18.636;2022-08-21T01:37:54;25.20;;;18.35;;
56991;SDS011;42885;49.754;18.636;2022-08-21T01:40:25;23.98;;;19.05;;
56991;SDS011;42885;49.754;18.636;2022-08-21T01:42:56;23.87;;;18.35;;
56991;SDS011;42885;49.754;18.636;2022-08-21T01:45:26;23.75;;;18.62;;
56991;SDS011;42885;49.754;18.636;2022-08-21T01:47:59;24.10;;;18.27;;
56991;SDS011;42885;49.754;18.636;2022-08-21T01:50:29;27.30;;;19.07;;
56991;SDS011;42885;49.754;18.636;2022-08-21T01:53:01;26.33;;;18.67;;
56991;SDS011;42885;49.754;18.636;2022-08-21T01:55:32;27.10;;;18.50;;
56991;SDS011;42885;49.754;18.636;2022-08-21T01:58:03;23.07;;;18.35;;
56991;SDS011;42885;49.754;18.636;2022-08-21T02:00:33;25.48;;;18.20;;
56991;SDS011;42885;49.754;18.636;2022-08-21T02:03:04;27.22;;;19.35;;
56991;SDS011;42885;49.754;18.636;2022-08-21T02:05:35;23.97;;;19.47;;
56991;SDS011;42885;49.754;18.636;2022-08-21T02:08:06;25.17;;;19.92;;
56991;SDS011;42885;49.754;18.636;2022-08-21T02:10:37;25.43;;;19.57;;
56991;SDS011;42885;49.754;18.636;2022-08-21T02:13:10;24.72;;;19.30;;
56991;SDS011;42885;49.754;18.636;2022-08-21T02:15:41;24.92;;;20.05;;
56991;SDS011;42885;49.754;18.636;2022-08-21T02:18:12;24.45;;;19.82;;
56991;SDS011;42885;49.754;18.636;2022-08-21T02:20:48;25.57;;;20.65;;
56991;SDS011;42885;49.754;18.636;2022-08-21T02:23:37;29.15;;;20.62;;
56991;SDS011;42885;49.754;18.636;2022-08-21T02:26:08;27.22;;;21.35;;
56991;SDS011;42885;49.754;18.636;2022-08-21T02:28:39;26.80;;;21.37;;
56991;SDS011;42885;49.754;18.636;2022-08-21T02:31:11;29.07;;;22.20;;
56991;SDS011;42885;49.754;18.636;2022-08-21T02:33:42;31.87;;;22.90;;
56991;SDS011;42885;49.754;18.636;2022-08-21T02:36:13;34.10;;;22.70;;
56991;SDS011;42885;49.754;18.636;2022-08-21T02:38:44;34.43;;;22.17;;
56991;SDS011;42885;49.754;18.636;2022-08-21T02:41:17;29.52;;;21.42;;
56991;SDS011;42885;49.754;18.636;2022-08-21T02:43:50;28.23;;;22.02;;
56991;SDS011;42885;49.754;18.636;2022-08-21T02:46:20;27.25;;;22.25;;
56991;SDS011;42885;49.754;18.636;2022-08-21T02:48:51;32.33;;;23.18;;
56991;SDS011;42885;49.754;18.636;2022-08-21T02:51:22;33.65;;;24.60;;
56991;SDS011;42885;49.754;18.636;2022-08-21T02:53:53;32.78;;;26.55;;
56991;SDS011;42885;49.754;18.636;2022-08-21T02:56:24;34.08;;;25.72;;
56991;SDS011;42885;49.754;18.636;2022-08-21T02:58:55;43.78;;;28.55;;
56991;SDS011;42885;49.754;18.636;2022-08-21T03:01:26;38.60;;;26.75;;
56991;SDS011;42885;49.754;18.636;2022-08-21T03:03:56;37.53;;;26.02;;
56991;SDS011;42885;49.754;18.636;2022-08-21T03:06:27;37.78;;;24.23;;
56991;SDS011;42885;49.754;18.636;2022-08-21T03:08:58;29.55;;;21.17;;
56991;SDS011;42885;49.754;18.636;2022-08-21T03:11:29;34.35;;;21.10;;
56991;SDS011;42885;49.754;18.636;2022-08-21T03:14:00;30.48;;;21.23;;
56991;SDS011;42885;49.754;18.636;2022-08-21T03:16:31;29.95;;;21.20;;
56991;SDS011;42885;49.754;18.636;2022-08-21T03:19:02;25.62;;;20.52;;
56991;SDS011;42885;49.754;18.636;2022-08-21T03:21:33;29.77;;;21.12;;
56991;SDS011;42885;49.754;18.636;2022-08-21T03:24:04;23.73;;;20.00;;
56991;SDS011;42885;49.754;18.636;2022-08-21T03:26:35;22.42;;;18.35;;
56991;SDS011;42885;49.754;18.636;2022-08-21T03:29:06;22.67;;;17.70;;
56991;SDS011;42885;49.754;18.636;2022-08-21T03:31:37;23.93;;;16.50;;
56991;SDS011;42885;49.754;18.636;2022-08-21T03:34:08;28.05;;;18.32;;
56991;SDS011;42885;49.754;18.636;2022-08-21T03:36:39;22.67;;;18.05;;
56991;SDS011;42885;49.754;18.636;2022-08-21T03:39:10;21.42;;;17.55;;
56991;SDS011;42885;49.754;18.636;2022-08-21T03:41:41;22.70;;;16.97;;
56991;SDS011;42885;49.754;18.636;2022-08-21T03:44:12;19.48;;;16.77;;
56991;SDS011;42885;49.754;18.636;2022-08-21T03:46:43;21.37;;;17.50;;
56991;SDS011;42885;49.754;18.636;2022-08-21T03:49:14;20.43;;;17.40;;
56991;SDS011;42885;49.754;18.636;2022-08-21T03:51:46;21.20;;;16.40;;
56991;SDS011;42885;49.754;18.636;2022-08-21T03:54:17;19.85;;;15.75;;
56991;SDS011;42885;49.754;18.636;2022-08-21T03:56:48;20.25;;;16.57;;
56991;SDS011;42885;49.754;18.636;2022-08-21T03:59:18;21.17;;;17.75;;
56991;SDS011;42885;49.754;18.636;2022-08-21T04:01:51;21.80;;;18.00;;
56991;SDS011;42885;49.754;18.636;2022-08-21T04:04:24;21.80;;;17.07;;
56991;SDS011;42885;49.754;18.636;2022-08-21T04:06:56;20.70;;;16.70;;
56991;SDS011;42885;49.754;18.636;2022-08-21T04:09:27;21.10;;;17.48;;
56991;SDS011;42885;49.754;18.636;2022-08-21T04:11:58;20.52;;;16.57;;
56991;SDS011;42885;49.754;18.636;2022-08-21T04:14:30;19.32;;;16.25;;
56991;SDS011;42885;49.754;18.636;2022-08-21T04:17:01;17.85;;;15.98;;
56991;SDS011;42885;49.754;18.636;2022-08-21T04:19:32;16.42;;;14.73;;
56991;SDS011;42885;49.754;18.636;2022-08-21T04:22:03;20.70;;;16.47;;
56991;SDS011;42885;49.754;18.636;2022-08-21T04:24:34;18.90;;;15.03;;
56991;SDS011;42885;49.754;18.636;2022-08-21T04:27:05;16.50;;;14.53;;
56991;SDS011;42885;49.754;18.636;2022-08-21T04:29:36;18.57;;;14.97;;
56991;SDS011;42885;49.754;18.636;2022-08-21T04:32:07;16.17;;;14.53;;
56991;SDS011;42885;49.754;18.636;2022-08-21T04:34:39;18.70;;;14.93;;
56991;SDS011;42885;49.754;18.636;2022-08-21T04:37:10;17.67;;;15.72;;
56991;SDS011;42885;49.754;18.636;2022-08-21T04:39:42;17.17;;;15.30;;
56991;SDS011;42885;49.754;18.636;2022-08-21T04:42:13;16.95;;;14.63;;
56991;SDS011;42885;49.754;18.636;2022-08-21T04:44:44;18.63;;;14.40;;
56991;SDS011;42885;49.754;18.636;2022-08-21T04:47:18;18.00;;;14.25;;
56991;SDS011;42885;49.754;18.636;2022-08-21T04:49:49;16.67;;;13.88;;
56991;SDS011;42885;49.754;18.636;2022-08-21T04:52:20;16.35;;;14.25;;
56991;SDS011;42885;49.754;18.636;2022-08-21T04:54:52;16.70;;;14.00;;
56991;SDS011;42885;49.754;18.636;2022-08-21T04:57:23;15.17;;;13.10;;
56991;SDS011;42885;49.754;18.636;2022-08-21T04:59:55;14.73;;;13.07;;
56991;SDS011;42885;49.754;18.636;2022-08-21T05:02:26;14.70;;;12.43;;
56991;SDS011;42885;49.754;18.636;2022-08-21T05:04:57;15.58;;;12.78;;
56991;SDS011;42885;49.754;18.636;2022-08-21T05:07:29;14.47;;;11.13;;
56991;SDS011;42885;49.754;18.636;2022-08-21T05:10:01;11.20;;;10.10;;
56991;SDS011;42885;49.754;18.636;2022-08-21T05:12:33;8.90;;;8.00;;
56991;SDS011;42885;49.754;18.636;2022-08-21T05:15:05;6.83;;;5.65;;
56991;SDS011;42885;49.754;18.636;2022-08-21T05:17:36;7.53;;;6.77;;
56991;SDS011;42885;49.754;18.636;2022-08-21T05:20:08;6.53;;;5.22;;
56991;SDS011;42885;49.754;18.636;2022-08-21T05:22:40;3.80;;;3.42;;
56991;SDS011;42885;49.754;18.636;2022-08-21T05:25:10;3.33;;;2.10;;
56991;SDS011;42885;49.754;18.636;2022-08-21T05:27:41;3.52;;;2.05;;
56991;SDS011;42885;49.754;18.636;2022-08-21T05:30:12;2.02;;;1.67;;
56991;SDS011;42885;49.754;18.636;2022-08-21T05:32:43;5.20;;;4.00;;
56991;SDS011;42885;49.754;18.636;2022-08-21T05:35:14;3.08;;;1.67;;
56991;SDS011;42885;49.754;18.636;2022-08-21T05:37:45;3.15;;;1.65;;
56991;SDS011;42885;49.754;18.636;2022-08-21T05:40:16;4.45;;;1.57;;
56991;SDS011;42885;49.754;18.636;2022-08-21T05:42:47;2.12;;;1.40;;
56991;SDS011;42885;49.754;18.636;2022-08-21T05:45:18;4.42;;;1.70;;
56991;SDS011;42885;49.754;18.636;2022-08-21T05:47:50;3.33;;;1.75;;
56991;SDS011;42885;49.754;18.636;2022-08-21T05:50:20;2.92;;;1.50;;
56991;SDS011;42885;49.754;18.636;2022-08-21T05:52:51;2.05;;;1.60;;
56991;SDS011;42885;49.754;18.636;2022-08-21T05:55:22;3.72;;;2.00;;
56991;SDS011;42885;49.754;18.636;2022-08-21T05:57:53;4.08;;;2.10;;
56991;SDS011;42885;49.754;18.636;2022-08-21T06:00:24;2.80;;;2.13;;
56991;SDS011;42885;49.754;18.636;2022-08-21T06:02:55;4.73;;;2.43;;
56991;SDS011;42885;49.754;18.636;2022-08-21T06:05:26;2.42;;;2.22;;
56991;SDS011;42885;49.754;18.636;2022-08-21T06:07:56;2.45;;;1.35;;
56991;SDS011;42885;49.754;18.636;2022-08-21T06:10:27;1.52;;;1.22;;
56991;SDS011;42885;49.754;18.636;2022-08-21T06:12:58;1.17;;;1.07;;
56991;SDS011;42885;49.754;18.636;2022-08-21T06:15:29;2.27;;;1.00;;
56991;SDS011;42885;49.754;18.636;2022-08-21T06:18:00;5.60;;;1.10;;
56991;SDS011;42885;49.754;18.636;2022-08-21T06:20:31;4.55;;;1.20;;
56991;SDS011;42885;49.754;18.636;2022-08-21T06:23:02;3.35;;;0.88;;
56991;SDS011;42885;49.754;18.636;2022-08-21T06:25:33;3.00;;;1.15;;
56991;SDS011;42885;49.754;18.636;2022-08-21T06:28:05;6.70;;;1.70;;
56991;SDS011;42885;49.754;18.636;2022-08-21T06:33:08;2.70;;;1.50;;
56991;SDS011;42885;49.754;18.636;2022-08-21T06:35:39;1.90;;;1.70;;
56991;SDS011;42885;49.754;18.636;2022-08-21T06:38:10;3.90;;;1.87;;
56991;SDS011;42885;49.754;18.636;2022-08-21T06:40:41;1.60;;;1.50;;
56991;SDS011;42885;49.754;18.636;2022-08-21T06:43:13;2.80;;;1.60;;
56991;SDS011;42885;49.754;18.636;2022-08-21T06:45:46;4.28;;;3.92;;
56991;SDS011;42885;49.754;18.636;2022-08-21T06:48:16;7.47;;;4.60;;
56991;SDS011;42885;49.754;18.636;2022-08-21T06:50:47;2.77;;;1.82;;
56991;SDS011;42885;49.754;18.636;2022-08-21T06:53:19;2.35;;;1.57;;
56991;SDS011;42885;49.754;18.636;2022-08-21T06:55:50;1.87;;;1.60;;
56991;SDS011;42885;49.754;18.636;2022-08-21T06:58:21;2.23;;;1.33;;
56991;SDS011;42885;49.754;18.636;2022-08-21T07:00:52;1.62;;;1.50;;
56991;SDS011;42885;49.754;18.636;2022-08-21T07:03:24;4.20;;;1.80;;
56991;SDS011;42885;49.754;18.636;2022-08-21T07:06:04;2.70;;;1.37;;
56991;SDS011;42885;49.754;18.636;2022-08-21T07:08:36;1.90;;;1.30;;
56991;SDS011;42885;49.754;18.636;2022-08-21T07:11:09;1.47;;;1.25;;
56991;SDS011;42885;49.754;18.636;2022-08-21T07:13:41;3.55;;;1.45;;
56991;SDS011;42885;49.754;18.636;2022-08-21T07:16:12;1.77;;;1.27;;
56991;SDS011;42885;49.754;18.636;2022-08-21T07:18:43;1.42;;;1.10;;
56991;SDS011;42885;49.754;18.636;2022-08-21T07:21:15;4.20;;;1.33;;
56991;SDS011;42885;49.754;18.636;2022-08-21T07:23:48;1.75;;;1.40;;
56991;SDS011;42885;49.754;18.636;2022-08-21T07:26:21;2.17;;;1.42;;
56991;SDS011;42885;49.754;18.636;2022-08-21T07:28:52;9.60;;;8.50;;
56991;SDS011;42885;49.754;18.636;2022-08-21T07:31:24;2.98;;;1.50;;
56991;SDS011;42885;49.754;18.636;2022-08-21T07:33:56;1.63;;;1.40;;
56991;SDS011;42885;49.754;18.636;2022-08-21T07:36:26;1.62;;;1.30;;
56991;SDS011;42885;49.754;18.636;2022-08-21T07:39:04;1.17;;;1.00;;
56991;SDS011;42885;49.754;18.636;2022-08-21T07:41:29;1.42;;;1.20;;
56991;SDS011;42885;49.754;18.636;2022-08-21T07:44:01;4.17;;;1.20;;
56991;SDS011;42885;49.754;18.636;2022-08-21T07:46:32;1.55;;;1.20;;
56991;SDS011;42885;49.754;18.636;2022-08-21T07:49:03;2.08;;;1.10;;
56991;SDS011;42885;49.754;18.636;2022-08-21T07:51:34;1.30;;;1.20;;
56991;SDS011;42885;49.754;18.636;2022-08-21T07:54:05;2.70;;;1.30;;
56991;SDS011;42885;49.754;18.636;2022-08-21T07:56:37;4.47;;;1.40;;
56991;SDS011;42885;49.754;18.636;2022-08-21T07:59:07;3.80;;;1.47;;
56991;SDS011;42885;49.754;18.636;2022-08-21T08:01:38;1.72;;;1.37;;
56991;SDS011;42885;49.754;18.636;2022-08-21T08:04:10;1.95;;;1.30;;
56991;SDS011;42885;49.754;18.636;2022-08-21T08:06:41;4.85;;;1.60;;
56991;SDS011;42885;49.754;18.636;2022-08-21T08:09:11;3.52;;;1.40;;
56991;SDS011;42885;49.754;18.636;2022-08-21T08:11:42;3.93;;;3.53;;
56991;SDS011;42885;49.754;18.636;2022-08-21T08:14:13;2.37;;;1.60;;
56991;SDS011;42885;49.754;18.636;2022-08-21T08:16:44;1.70;;;1.27;;
56991;SDS011;42885;49.754;18.636;2022-08-21T08:19:15;2.02;;;1.22;;
56991;SDS011;42885;49.754;18.636;2022-08-21T08:21:46;2.93;;;1.30;;
56991;SDS011;42885;49.754;18.636;2022-08-21T08:24:17;1.92;;;1.40;;
56991;SDS011;42885;49.754;18.636;2022-08-21T08:26:47;2.52;;;1.67;;
56991;SDS011;42885;49.754;18.636;2022-08-21T08:29:18;2.08;;;1.85;;
56991;SDS011;42885;49.754;18.636;2022-08-21T08:31:51;3.33;;;3.00;;
56991;SDS011;42885;49.754;18.636;2022-08-21T08:34:21;4.33;;;2.45;;
56991;SDS011;42885;49.754;18.636;2022-08-21T08:36:52;2.90;;;2.62;;
56991;SDS011;42885;49.754;18.636;2022-08-21T08:39:23;3.20;;;2.90;;
56991;SDS011;42885;49.754;18.636;2022-08-21T08:42:15;2.80;;;2.60;;
56991;SDS011;42885;49.754;18.636;2022-08-21T08:44:50;2.50;;;2.30;;
56991;SDS011;42885;49.754;18.636;2022-08-21T08:47:26;2.20;;;1.72;;
56991;SDS011;42885;49.754;18.636;2022-08-21T08:50:05;1.60;;;1.50;;
56991;SDS011;42885;49.754;18.636;2022-08-21T08:52:41;1.77;;;1.63;;
56991;SDS011;42885;49.754;18.636;2022-08-21T08:55:28;1.70;;;1.60;;
56991;SDS011;42885;49.754;18.636;2022-08-21T08:58:00;1.50;;;1.40;;
56991;SDS011;42885;49.754;18.636;2022-08-21T09:00:32;3.27;;;2.97;;
56991;SDS011;42885;49.754;18.636;2022-08-21T09:03:14;1.60;;;1.50;;
56991;SDS011;42885;49.754;18.636;2022-08-21T09:06:17;1.45;;;1.35;;
56991;SDS011;42885;49.754;18.636;2022-08-21T09:08:34;1.47;;;1.37;;
56991;SDS011;42885;49.754;18.636;2022-08-21T09:11:17;1.57;;;1.47;;
56991;SDS011;42885;49.754;18.636;2022-08-21T09:16:46;2.65;;;2.45;;
56991;SDS011;42885;49.754;18.636;2022-08-21T09:23:01;3.52;;;3.22;;
56991;SDS011;42885;49.754;18.636;2022-08-21T09:25:01;2.80;;;2.60;;
56991;SDS011;42885;49.754;18.636;2022-08-21T09:30:08;2.92;;;2.67;;
56991;SDS011;42885;49.754;18.636;2022-08-21T09:32:40;3.17;;;2.93;;
56991;SDS011;42885;49.754;18.636;2022-08-21T09:45:46;3.37;;;3.17;;
56991;SDS011;42885;49.754;18.636;2022-08-21T09:48:19;3.95;;;2.87;;
56991;SDS011;42885;49.754;18.636;2022-08-21T09:50:52;3.30;;;3.00;;
56991;SDS011;42885;49.754;18.636;2022-08-21T09:53:25;3.45;;;2.87;;
56991;SDS011;42885;49.754;18.636;2022-08-21T09:55:59;3.27;;;2.98;;
56991;SDS011;42885;49.754;18.636;2022-08-21T09:58:53;4.00;;;3.67;;
56991;SDS011;42885;49.754;18.636;2022-08-21T10:01:24;4.20;;;3.90;;
56991;SDS011;42885;49.754;18.636;2022-08-21T10:04:03;3.05;;;2.85;;
56991;SDS011;42885;49.754;18.636;2022-08-21T10:06:35;3.02;;;2.60;;
56991;SDS011;42885;49.754;18.636;2022-08-21T10:09:09;3.07;;;2.77;;
56991;SDS011;42885;49.754;18.636;2022-08-21T10:11:43;3.13;;;2.50;;
56991;SDS011;42885;49.754;18.636;2022-08-21T10:14:26;2.30;;;2.10;;
56991;SDS011;42885;49.754;18.636;2022-08-21T10:17:05;2.65;;;2.45;;
56991;SDS011;42885;49.754;18.636;2022-08-21T10:19:43;2.33;;;2.20;;
56991;SDS011;42885;49.754;18.636;2022-08-21T10:27:35;2.12;;;2.02;;
56991;SDS011;42885;49.754;18.636;2022-08-21T10:30:13;2.40;;;2.20;;
56991;SDS011;42885;49.754;18.636;2022-08-21T10:32:57;2.30;;;2.10;;
56991;SDS011;42885;49.754;18.636;2022-08-21T10:35:37;2.80;;;2.57;;
56991;SDS011;42885;49.754;18.636;2022-08-21T10:44:05;2.62;;;2.08;;
56991;SDS011;42885;49.754;18.636;2022-08-21T10:46:44;3.77;;;2.30;;
56991;SDS011;42885;49.754;18.636;2022-08-21T10:49:47;3.25;;;2.00;;
56991;SDS011;42885;49.754;18.636;2022-08-21T10:55:08;1.07;;;0.97;;
56991;SDS011;42885;49.754;18.636;2022-08-21T10:57:42;5.80;;;1.62;;
56991;SDS011;42885;49.754;18.636;2022-08-21T11:00:19;0.95;;;0.93;;
56991;SDS011;42885;49.754;18.636;2022-08-21T11:03:02;0.70;;;0.70;;
56991;SDS011;42885;49.754;18.636;2022-08-21T11:05:41;1.60;;;1.00;;
56991;SDS011;42885;49.754;18.636;2022-08-21T11:08:23;1.40;;;0.90;;
56991;SDS011;42885;49.754;18.636;2022-08-21T11:13:47;1.07;;;1.00;;
56991;SDS011;42885;49.754;18.636;2022-08-21T11:16:47;1.00;;;0.90;;
56991;SDS011;42885;49.754;18.636;2022-08-21T11:19:28;1.25;;;1.07;;
56991;SDS011;42885;49.754;18.636;2022-08-21T11:24:44;1.17;;;1.05;;
56991;SDS011;42885;49.754;18.636;2022-08-21T11:30:17;1.23;;;1.13;;
56991;SDS011;42885;49.754;18.636;2022-08-21T11:35:39;1.87;;;1.40;;
56991;SDS011;42885;49.754;18.636;2022-08-21T11:38:19;3.33;;;1.70;;
56991;SDS011;42885;49.754;18.636;2022-08-21T11:41:16;1.90;;;1.80;;
56991;SDS011;42885;49.754;18.636;2022-08-21T11:43:48;2.17;;;1.82;;
56991;SDS011;42885;49.754;18.636;2022-08-21T11:54:46;3.92;;;3.22;;
56991;SDS011;42885;49.754;18.636;2022-08-21T11:57:20;3.87;;;3.58;;
56991;SDS011;42885;49.754;18.636;2022-08-21T12:00:05;4.58;;;4.12;;
56991;SDS011;42885;49.754;18.636;2022-08-21T12:02:53;4.50;;;4.10;;
56991;SDS011;42885;49.754;18.636;2022-08-21T12:05:28;4.70;;;4.30;;
56991;SDS011;42885;49.754;18.636;2022-08-21T12:08:11;4.62;;;4.22;;
56991;SDS011;42885;49.754;18.636;2022-08-21T12:10:46;5.47;;;4.97;;
56991;SDS011;42885;49.754;18.636;2022-08-21T12:13:26;6.17;;;5.65;;
56991;SDS011;42885;49.754;18.636;2022-08-21T12:16:12;15.47;;;6.90;;
56991;SDS011;42885;49.754;18.636;2022-08-21T12:18:45;7.33;;;6.13;;
56991;SDS011;42885;49.754;18.636;2022-08-21T12:21:19;7.42;;;6.28;;
56991;SDS011;42885;49.754;18.636;2022-08-21T12:29:36;8.40;;;6.62;;
56991;SDS011;42885;49.754;18.636;2022-08-21T12:34:50;7.17;;;6.45;;
56991;SDS011;42885;49.754;18.636;2022-08-21T12:40:18;7.62;;;6.08;;
56991;SDS011;42885;49.754;18.636;2022-08-21T12:42:51;5.95;;;5.40;;
56991;SDS011;42885;49.754;18.636;2022-08-21T12:45:44;5.28;;;4.45;;
56991;SDS011;42885;49.754;18.636;2022-08-21T12:51:05;5.25;;;4.75;;
56991;SDS011;42885;49.754;18.636;2022-08-21T12:53:30;8.85;;;5.72;;
56991;SDS011;42885;49.754;18.636;2022-08-21T12:56:09;7.85;;;5.78;;
56991;SDS011;42885;49.754;18.636;2022-08-21T12:58:51;8.10;;;6.28;;
56991;SDS011;42885;49.754;18.636;2022-08-21T13:02:07;7.85;;;7.05;;
56991;SDS011;42885;49.754;18.636;2022-08-21T13:04:13;7.93;;;7.13;;
56991;SDS011;42885;49.754;18.636;2022-08-21T13:06:52;8.13;;;7.17;;
56991;SDS011;42885;49.754;18.636;2022-08-21T13:09:35;7.90;;;7.20;;
56991;SDS011;42885;49.754;18.636;2022-08-21T13:12:07;8.23;;;7.43;;
56991;SDS011;42885;49.754;18.636;2022-08-21T13:14:42;6.65;;;5.95;;
56991;SDS011;42885;49.754;18.636;2022-08-21T13:17:35;8.10;;;6.47;;
56991;SDS011;42885;49.754;18.636;2022-08-21T13:20:09;8.50;;;5.92;;
56991;SDS011;42885;49.754;18.636;2022-08-21T13:22:51;8.35;;;6.40;;
56991;SDS011;42885;49.754;18.636;2022-08-21T13:25:26;7.72;;;6.87;;
56991;SDS011;42885;49.754;18.636;2022-08-21T13:28:05;8.63;;;6.90;;
56991;SDS011;42885;49.754;18.636;2022-08-21T13:30:39;10.05;;;6.83;;
56991;SDS011;42885;49.754;18.636;2022-08-21T13:33:15;10.32;;;7.45;;
56991;SDS011;42885;49.754;18.636;2022-08-21T13:35:49;9.78;;;7.75;;
56991;SDS011;42885;49.754;18.636;2022-08-21T13:38:29;9.56;;;8.54;;
56991;SDS011;42885;49.754;18.636;2022-08-21T13:43:49;8.13;;;7.20;;
56991;SDS011;42885;49.754;18.636;2022-08-21T13:46:20;12.03;;;8.45;;
56991;SDS011;42885;49.754;18.636;2022-08-21T13:48:54;8.95;;;7.85;;
56991;SDS011;42885;49.754;18.636;2022-08-21T13:51:26;7.60;;;6.80;;
56991;SDS011;42885;49.754;18.636;2022-08-21T13:53:57;7.62;;;5.90;;
56991;SDS011;42885;49.754;18.636;2022-08-21T13:56:33;11.73;;;6.03;;
56991;SDS011;42885;49.754;18.636;2022-08-21T13:59:04;7.72;;;6.33;;
56991;SDS011;42885;49.754;18.636;2022-08-21T14:01:36;6.87;;;6.10;;
56991;SDS011;42885;49.754;18.636;2022-08-21T14:04:16;8.00;;;5.83;;
56991;SDS011;42885;49.754;18.636;2022-08-21T14:06:52;7.30;;;5.70;;
56991;SDS011;42885;49.754;18.636;2022-08-21T14:09:25;7.87;;;6.35;;
56991;SDS011;42885;49.754;18.636;2022-08-21T14:12:11;7.62;;;5.33;;
56991;SDS011;42885;49.754;18.636;2022-08-21T14:14:47;6.00;;;5.40;;
56991;SDS011;42885;49.754;18.636;2022-08-21T14:17:29;6.20;;;5.10;;
56991;SDS011;42885;49.754;18.636;2022-08-21T14:20:01;7.00;;;5.47;;
56991;SDS011;42885;49.754;18.636;2022-08-21T14:22:48;7.37;;;5.42;;
56991;SDS011;42885;49.754;18.636;2022-08-21T14:27:54;6.83;;;4.80;;
56991;SDS011;42885;49.754;18.636;2022-08-21T14:30:30;9.20;;;5.40;;
56991;SDS011;42885;49.754;18.636;2022-08-21T14:33:03;7.12;;;5.53;;
56991;SDS011;42885;49.754;18.636;2022-08-21T14:35:37;6.00;;;4.87;;
56991;SDS011;42885;49.754;18.636;2022-08-21T14:38:17;5.90;;;4.95;;
56991;SDS011;42885;49.754;18.636;2022-08-21T14:40:51;8.05;;;5.45;;
56991;SDS011;42885;49.754;18.636;2022-08-21T14:43:24;8.55;;;4.90;;
56991;SDS011;42885;49.754;18.636;2022-08-21T14:45:57;6.37;;;5.12;;
56991;SDS011;42885;49.754;18.636;2022-08-21T14:48:28;7.83;;;4.92;;
56991;SDS011;42885;49.754;18.636;2022-08-21T14:50:59;7.72;;;5.25;;
56991;SDS011;42885;49.754;18.636;2022-08-21T14:53:29;6.75;;;4.97;;
56991;SDS011;42885;49.754;18.636;2022-08-21T14:56:00;7.22;;;4.90;;
56991;SDS011;42885;49.754;18.636;2022-08-21T14:58:42;5.20;;;4.53;;
56991;SDS011;42885;49.754;18.636;2022-08-21T15:01:17;9.20;;;5.30;;
56991;SDS011;42885;49.754;18.636;2022-08-21T15:03:50;8.80;;;5.67;;
56991;SDS011;42885;49.754;18.636;2022-08-21T15:06:21;7.90;;;6.22;;
56991;SDS011;42885;49.754;18.636;2022-08-21T15:08:52;6.33;;;5.65;;
56991;SDS011;42885;49.754;18.636;2022-08-21T15:11:23;10.23;;;5.90;;
56991;SDS011;42885;49.754;18.636;2022-08-21T15:13:55;6.97;;;5.65;;
56991;SDS011;42885;49.754;18.636;2022-08-21T15:16:28;8.23;;;6.05;;
56991;SDS011;42885;49.754;18.636;2022-08-21T15:19:02;9.65;;;6.05;;
56991;SDS011;42885;49.754;18.636;2022-08-21T15:21:33;9.13;;;5.95;;
56991;SDS011;42885;49.754;18.636;2022-08-21T15:24:04;8.50;;;5.75;;
56991;SDS011;42885;49.754;18.636;2022-08-21T15:26:35;7.87;;;6.07;;
56991;SDS011;42885;49.754;18.636;2022-08-21T15:29:07;6.45;;;5.12;;
56991;SDS011;42885;49.754;18.636;2022-08-21T15:31:49;8.13;;;5.45;;
56991;SDS011;42885;49.754;18.636;2022-08-21T15:34:22;6.92;;;5.08;;
56991;SDS011;42885;49.754;18.636;2022-08-21T15:36:54;8.23;;;5.85;;
56991;SDS011;42885;49.754;18.636;2022-08-21T15:39:26;7.10;;;5.30;;
56991;SDS011;42885;49.754;18.636;2022-08-21T15:41:58;7.43;;;4.37;;
56991;SDS011;42885;49.754;18.636;2022-08-21T15:44:28;8.23;;;4.75;;
56991;SDS011;42885;49.754;18.636;2022-08-21T15:46:59;8.78;;;4.42;;
56991;SDS011;42885;49.754;18.636;2022-08-21T15:49:31;6.72;;;4.22;;
56991;SDS011;42885;49.754;18.636;2022-08-21T15:52:02;6.37;;;4.55;;
56991;SDS011;42885;49.754;18.636;2022-08-21T15:54:32;5.90;;;4.58;;
56991;SDS011;42885;49.754;18.636;2022-08-21T15:57:03;8.15;;;4.50;;
56991;SDS011;42885;49.754;18.636;2022-08-21T15:59:41;8.10;;;4.90;;
56991;SDS011;42885;49.754;18.636;2022-08-21T16:02:17;8.90;;;5.25;;
56991;SDS011;42885;49.754;18.636;2022-08-21T16:04:50;8.47;;;5.23;;
56991;SDS011;42885;49.754;18.636;2022-08-21T16:07:21;9.13;;;5.57;;
56991;SDS011;42885;49.754;18.636;2022-08-21T16:09:52;9.35;;;7.03;;
56991;SDS011;42885;49.754;18.636;2022-08-21T16:12:24;9.53;;;6.83;;
56991;SDS011;42885;49.754;18.636;2022-08-21T16:14:57;10.98;;;6.97;;
56991;SDS011;42885;49.754;18.636;2022-08-21T16:17:31;10.35;;;7.05;;